sensor_id;sensor_type;location;lat;lon;timestamp;P1;durP1;ratioP1;P2;durP2;ratioP2
69523;SDS011;56723;42.694;23.286;2023-04-24T06:35:45;8.80;;;6.03;;
69523;SDS011;56723;42.694;23.286;2023-04-24T06:38:13;9.38;;;6.30;;
69523;SDS011;56723;42.694;23.286;2023-04-24T06:40:40;8.27;;;5.78;;
69523;SDS011;56723;42.694;23.286;2023-04-24T06:43:07;12.70;;;6.25;;
69523;SDS011;56723;42.694;23.286;2023-04-24T06:45:33;10.93;;;6.05;;
69523;SDS011;56723;42.694;23.286;2023-04-24T06:48:01;7.97;;;5.55;;
69523;SDS011;56723;42.694;23.286;2023-04-24T06:50:28;6.28;;;5.28;;
69523;SDS011;56723;42.694;23.286;2023-04-24T06:52:54;12.73;;;6.00;;
69523;SDS011;56723;42.694;23.286;2023-04-24T06:55:21;7.45;;;5.32;;
69523;SDS011;56723;42.694;23.286;2023-04-24T06:57:48;8.70;;;5.85;;
69523;SDS011;56723;42.694;23.286;2023-04-24T07:00:15;13.63;;;6.70;;
69523;SDS011;56723;42.694;23.286;2023-04-24T07:02:43;10.95;;;6.07;;
69523;SDS011;56723;42.694;23.286;2023-04-24T07:05:10;8.05;;;6.90;;
69523;SDS011;56723;42.694;23.286;2023-04-24T07:07:37;13.27;;;8.73;;
69523;SDS011;56723;42.694;23.286;2023-04-24T07:10:05;12.65;;;8.38;;
69523;SDS011;56723;42.694;23.286;2023-04-24T07:12:32;9.82;;;5.78;;
69523;SDS011;56723;42.694;23.286;2023-04-24T07:15:00;9.02;;;6.28;;
69523;SDS011;56723;42.694;23.286;2023-04-24T07:17:27;10.60;;;6.32;;
69523;SDS011;56723;42.694;23.286;2023-04-24T07:19:54;9.40;;;6.45;;
69523;SDS011;56723;42.694;23.286;2023-04-24T07:22:21;10.70;;;6.60;;
69523;SDS011;56723;42.694;23.286;2023-04-24T07:24:48;12.70;;;5.72;;
69523;SDS011;56723;42.694;23.286;2023-04-24T07:27:15;8.27;;;5.45;;
69523;SDS011;56723;42.694;23.286;2023-04-24T07:29:42;9.43;;;5.97;;
69523;SDS011;56723;42.694;23.286;2023-04-24T07:32:10;10.45;;;6.22;;
69523;SDS011;56723;42.694;23.286;2023-04-24T07:34:37;9.65;;;6.20;;
69523;SDS011;56723;42.694;23.286;2023-04-24T07:37:04;8.50;;;5.20;;
69523;SDS011;56723;42.694;23.286;2023-04-24T07:39:31;11.32;;;6.25;;
69523;SDS011;56723;42.694;23.286;2023-04-24T07:41:58;9.68;;;6.43;;
69523;SDS011;56723;42.694;23.286;2023-04-24T07:44:25;8.85;;;5.47;;
69523;SDS011;56723;42.694;23.286;2023-04-24T07:46:52;13.25;;;7.40;;
69523;SDS011;56723;42.694;23.286;2023-04-24T07:49:20;9.93;;;7.25;;
69523;SDS011;56723;42.694;23.286;2023-04-24T07:51:50;8.65;;;6.47;;
69523;SDS011;56723;42.694;23.286;2023-04-24T07:54:17;8.77;;;5.50;;
69523;SDS011;56723;42.694;23.286;2023-04-24T07:56:44;9.27;;;5.30;;
69523;SDS011;56723;42.694;23.286;2023-04-24T07:59:11;15.38;;;5.95;;
69523;SDS011;56723;42.694;23.286;2023-04-24T08:01:38;9.82;;;5.68;;
69523;SDS011;56723;42.694;23.286;2023-04-24T08:04:05;8.85;;;5.80;;
69523;SDS011;56723;42.694;23.286;2023-04-24T08:06:33;10.00;;;5.60;;
69523;SDS011;56723;42.694;23.286;2023-04-24T08:09:00;9.25;;;6.35;;
69523;SDS011;56723;42.694;23.286;2023-04-24T08:11:27;11.70;;;7.70;;
69523;SDS011;56723;42.694;23.286;2023-04-24T08:13:54;10.30;;;6.53;;
69523;SDS011;56723;42.694;23.286;2023-04-24T08:16:21;8.65;;;5.95;;
69523;SDS011;56723;42.694;23.286;2023-04-24T08:21:17;7.20;;;5.15;;
69523;SDS011;56723;42.694;23.286;2023-04-24T08:23:45;9.45;;;5.43;;
69523;SDS011;56723;42.694;23.286;2023-04-24T08:26:12;9.20;;;6.22;;
69523;SDS011;56723;42.694;23.286;2023-04-24T08:28:40;6.90;;;5.80;;
69523;SDS011;56723;42.694;23.286;2023-04-24T08:31:07;13.07;;;5.85;;
69523;SDS011;56723;42.694;23.286;2023-04-24T08:33:34;8.07;;;5.28;;
69523;SDS011;56723;42.694;23.286;2023-04-24T08:36:05;8.27;;;5.25;;
69523;SDS011;56723;42.694;23.286;2023-04-24T08:38:32;9.15;;;6.05;;
69523;SDS011;56723;42.694;23.286;2023-04-24T08:41:00;6.88;;;5.25;;
69523;SDS011;56723;42.694;23.286;2023-04-24T08:43:32;8.20;;;5.35;;
69523;SDS011;56723;42.694;23.286;2023-04-24T08:46:03;7.57;;;4.65;;
69523;SDS011;56723;42.694;23.286;2023-04-24T08:48:36;6.43;;;5.43;;
69523;SDS011;56723;42.694;23.286;2023-04-24T08:51:06;8.02;;;5.03;;
69523;SDS011;56723;42.694;23.286;2023-04-24T08:53:35;12.40;;;5.40;;
69523;SDS011;56723;42.694;23.286;2023-04-24T08:56:02;8.70;;;5.07;;
69523;SDS011;56723;42.694;23.286;2023-04-24T08:58:31;6.20;;;4.78;;
69523;SDS011;56723;42.694;23.286;2023-04-24T09:00:58;7.30;;;5.75;;
69523;SDS011;56723;42.694;23.286;2023-04-24T09:03:26;11.57;;;5.20;;
69523;SDS011;56723;42.694;23.286;2023-04-24T09:05:55;8.77;;;4.72;;
69523;SDS011;56723;42.694;23.286;2023-04-24T09:08:24;7.35;;;5.55;;
69523;SDS011;56723;42.694;23.286;2023-04-24T09:10:52;10.40;;;5.50;;
69523;SDS011;56723;42.694;23.286;2023-04-24T09:13:19;7.15;;;5.15;;
69523;SDS011;56723;42.694;23.286;2023-04-24T09:15:47;6.53;;;4.88;;
69523;SDS011;56723;42.694;23.286;2023-04-24T09:18:14;7.85;;;4.55;;
69523;SDS011;56723;42.694;23.286;2023-04-24T09:21:01;7.45;;;4.88;;
69523;SDS011;56723;42.694;23.286;2023-04-24T09:23:30;6.18;;;5.00;;
69523;SDS011;56723;42.694;23.286;2023-04-24T09:25:58;7.75;;;5.18;;
69523;SDS011;56723;42.694;23.286;2023-04-24T09:28:31;8.35;;;4.63;;
69523;SDS011;56723;42.694;23.286;2023-04-24T09:33:34;9.25;;;5.30;;
69523;SDS011;56723;42.694;23.286;2023-04-24T09:36:02;7.80;;;4.70;;
69523;SDS011;56723;42.694;23.286;2023-04-24T09:41:12;12.68;;;4.10;;
69523;SDS011;56723;42.694;23.286;2023-04-24T09:43:40;7.05;;;4.38;;
69523;SDS011;56723;42.694;23.286;2023-04-24T09:46:07;12.20;;;5.35;;
69523;SDS011;56723;42.694;23.286;2023-04-24T09:48:36;7.15;;;4.07;;
69523;SDS011;56723;42.694;23.286;2023-04-24T09:51:05;4.70;;;3.88;;
69523;SDS011;56723;42.694;23.286;2023-04-24T09:53:33;6.43;;;4.25;;
69523;SDS011;56723;42.694;23.286;2023-04-24T09:56:10;7.53;;;3.72;;
69523;SDS011;56723;42.694;23.286;2023-04-24T09:58:39;6.40;;;3.53;;
69523;SDS011;56723;42.694;23.286;2023-04-24T10:01:06;4.95;;;3.78;;
69523;SDS011;56723;42.694;23.286;2023-04-24T10:03:35;4.50;;;3.95;;
69523;SDS011;56723;42.694;23.286;2023-04-24T10:06:03;5.75;;;3.20;;
69523;SDS011;56723;42.694;23.286;2023-04-24T10:08:36;4.95;;;3.40;;
69523;SDS011;56723;42.694;23.286;2023-04-24T10:11:05;4.32;;;3.45;;
69523;SDS011;56723;42.694;23.286;2023-04-24T10:13:33;4.93;;;2.97;;
69523;SDS011;56723;42.694;23.286;2023-04-24T10:16:02;5.85;;;3.13;;
69523;SDS011;56723;42.694;23.286;2023-04-24T10:18:30;6.03;;;2.90;;
69523;SDS011;56723;42.694;23.286;2023-04-24T10:20:59;7.38;;;3.50;;
69523;SDS011;56723;42.694;23.286;2023-04-24T10:23:27;4.47;;;2.88;;
69523;SDS011;56723;42.694;23.286;2023-04-24T10:25:55;5.13;;;2.85;;
69523;SDS011;56723;42.694;23.286;2023-04-24T10:28:22;3.40;;;3.10;;
69523;SDS011;56723;42.694;23.286;2023-04-24T10:33:21;6.15;;;3.00;;
69523;SDS011;56723;42.694;23.286;2023-04-24T10:35:50;5.45;;;3.45;;
69523;SDS011;56723;42.694;23.286;2023-04-24T10:38:21;5.10;;;3.83;;
69523;SDS011;56723;42.694;23.286;2023-04-24T10:40:51;5.07;;;2.92;;
69523;SDS011;56723;42.694;23.286;2023-04-24T10:43:23;5.85;;;3.17;;
69523;SDS011;56723;42.694;23.286;2023-04-24T10:46:03;5.38;;;2.88;;
69523;SDS011;56723;42.694;23.286;2023-04-24T10:48:33;5.97;;;2.85;;
69523;SDS011;56723;42.694;23.286;2023-04-24T10:51:00;6.63;;;3.37;;
69523;SDS011;56723;42.694;23.286;2023-04-24T10:53:29;5.93;;;2.90;;
69523;SDS011;56723;42.694;23.286;2023-04-24T10:56:04;5.30;;;3.88;;
69523;SDS011;56723;42.694;23.286;2023-04-24T10:58:39;5.00;;;2.33;;
69523;SDS011;56723;42.694;23.286;2023-04-24T11:01:07;3.45;;;2.67;;
69523;SDS011;56723;42.694;23.286;2023-04-24T11:03:35;3.47;;;2.53;;
69523;SDS011;56723;42.694;23.286;2023-04-24T11:06:07;5.60;;;2.60;;
69523;SDS011;56723;42.694;23.286;2023-04-24T11:08:45;4.82;;;1.90;;
69523;SDS011;56723;42.694;23.286;2023-04-24T11:11:13;4.00;;;2.40;;
69523;SDS011;56723;42.694;23.286;2023-04-24T11:16:32;3.10;;;1.88;;
69523;SDS011;56723;42.694;23.286;2023-04-24T11:27:18;5.25;;;3.88;;
69523;SDS011;56723;42.694;23.286;2023-04-24T11:29:47;6.80;;;4.15;;
69523;SDS011;56723;42.694;23.286;2023-04-24T11:34:58;4.75;;;3.03;;
69523;SDS011;56723;42.694;23.286;2023-04-24T11:37:28;3.63;;;3.33;;
69523;SDS011;56723;42.694;23.286;2023-04-24T11:40:10;3.67;;;3.33;;
69523;SDS011;56723;42.694;23.286;2023-04-24T11:42:42;2.50;;;2.30;;
69523;SDS011;56723;42.694;23.286;2023-04-24T11:45:11;4.47;;;2.40;;
69523;SDS011;56723;42.694;23.286;2023-04-24T11:47:40;3.33;;;2.95;;
69523;SDS011;56723;42.694;23.286;2023-04-24T11:50:09;4.47;;;3.07;;
69523;SDS011;56723;42.694;23.286;2023-04-24T11:52:38;2.95;;;2.30;;
69523;SDS011;56723;42.694;23.286;2023-04-24T11:57:43;3.50;;;1.95;;
69523;SDS011;56723;42.694;23.286;2023-04-24T12:00:17;2.97;;;2.53;;
69523;SDS011;56723;42.694;23.286;2023-04-24T12:02:47;2.40;;;2.20;;
69523;SDS011;56723;42.694;23.286;2023-04-24T12:07:53;3.70;;;2.20;;
69523;SDS011;56723;42.694;23.286;2023-04-24T12:10:21;3.08;;;2.17;;
69523;SDS011;56723;42.694;23.286;2023-04-24T12:12:50;2.83;;;2.30;;
69523;SDS011;56723;42.694;23.286;2023-04-24T12:15:19;2.50;;;1.90;;
69523;SDS011;56723;42.694;23.286;2023-04-24T12:17:47;3.30;;;2.35;;
69523;SDS011;56723;42.694;23.286;2023-04-24T12:20:22;2.70;;;2.20;;
69523;SDS011;56723;42.694;23.286;2023-04-24T12:22:55;3.67;;;2.63;;
69523;SDS011;56723;42.694;23.286;2023-04-24T12:25:24;5.20;;;2.22;;
69523;SDS011;56723;42.694;23.286;2023-04-24T12:28:08;2.40;;;1.95;;
69523;SDS011;56723;42.694;23.286;2023-04-24T12:30:44;1.88;;;1.77;;
69523;SDS011;56723;42.694;23.286;2023-04-24T12:33:21;1.98;;;1.75;;
69523;SDS011;56723;42.694;23.286;2023-04-24T12:35:51;3.35;;;2.00;;
69523;SDS011;56723;42.694;23.286;2023-04-24T12:38:22;2.17;;;1.70;;
69523;SDS011;56723;42.694;23.286;2023-04-24T12:41:01;2.88;;;1.90;;
69523;SDS011;56723;42.694;23.286;2023-04-24T12:45:57;2.47;;;2.00;;
69523;SDS011;56723;42.694;23.286;2023-04-24T12:48:26;1.88;;;1.70;;
69523;SDS011;56723;42.694;23.286;2023-04-24T12:50:53;5.18;;;3.63;;
69523;SDS011;56723;42.694;23.286;2023-04-24T12:53:21;2.40;;;1.63;;
69523;SDS011;56723;42.694;23.286;2023-04-24T12:55:48;1.90;;;1.48;;
69523;SDS011;56723;42.694;23.286;2023-04-24T12:58:19;3.85;;;2.20;;
69523;SDS011;56723;42.694;23.286;2023-04-24T13:00:47;2.55;;;2.08;;
69523;SDS011;56723;42.694;23.286;2023-04-24T13:03:14;2.90;;;2.33;;
69523;SDS011;56723;42.694;23.286;2023-04-24T13:05:42;5.25;;;3.03;;
69523;SDS011;56723;42.694;23.286;2023-04-24T13:08:10;2.08;;;1.77;;
69523;SDS011;56723;42.694;23.286;2023-04-24T13:10:37;3.45;;;1.98;;
69523;SDS011;56723;42.694;23.286;2023-04-24T13:13:04;3.65;;;2.95;;
69523;SDS011;56723;42.694;23.286;2023-04-24T13:15:31;3.08;;;1.90;;
69523;SDS011;56723;42.694;23.286;2023-04-24T13:17:58;3.38;;;1.75;;
69523;SDS011;56723;42.694;23.286;2023-04-24T13:20:25;2.70;;;2.00;;
69523;SDS011;56723;42.694;23.286;2023-04-24T13:22:53;3.53;;;1.52;;
69523;SDS011;56723;42.694;23.286;2023-04-24T13:25:20;1.77;;;1.67;;
69523;SDS011;56723;42.694;23.286;2023-04-24T13:27:47;1.50;;;1.23;;
69523;SDS011;56723;42.694;23.286;2023-04-24T13:30:14;5.43;;;2.28;;
69523;SDS011;56723;42.694;23.286;2023-04-24T13:32:41;3.10;;;1.88;;
69523;SDS011;56723;42.694;23.286;2023-04-24T13:35:08;2.00;;;1.38;;
69523;SDS011;56723;42.694;23.286;2023-04-24T13:37:35;1.60;;;1.50;;
69523;SDS011;56723;42.694;23.286;2023-04-24T13:40:02;3.97;;;2.20;;
69523;SDS011;56723;42.694;23.286;2023-04-24T13:42:32;4.10;;;2.25;;
69523;SDS011;56723;42.694;23.286;2023-04-24T13:44:59;4.07;;;1.83;;
69523;SDS011;56723;42.694;23.286;2023-04-24T13:47:36;1.95;;;1.42;;
69523;SDS011;56723;42.694;23.286;2023-04-24T13:50:03;3.58;;;1.50;;
69523;SDS011;56723;42.694;23.286;2023-04-24T13:52:30;2.83;;;1.65;;
69523;SDS011;56723;42.694;23.286;2023-04-24T13:54:57;4.32;;;3.38;;
69523;SDS011;56723;42.694;23.286;2023-04-24T13:57:24;6.07;;;2.42;;
69523;SDS011;56723;42.694;23.286;2023-04-24T13:59:52;8.02;;;2.40;;
69523;SDS011;56723;42.694;23.286;2023-04-24T14:02:19;4.57;;;1.65;;
69523;SDS011;56723;42.694;23.286;2023-04-24T14:04:46;2.95;;;2.20;;
69523;SDS011;56723;42.694;23.286;2023-04-24T14:09:42;3.90;;;1.25;;
69523;SDS011;56723;42.694;23.286;2023-04-24T14:12:08;1.80;;;1.60;;
69523;SDS011;56723;42.694;23.286;2023-04-24T14:14:36;2.10;;;1.27;;
69523;SDS011;56723;42.694;23.286;2023-04-24T14:17:03;2.88;;;1.23;;
69523;SDS011;56723;42.694;23.286;2023-04-24T14:19:30;10.00;;;1.70;;
69523;SDS011;56723;42.694;23.286;2023-04-24T14:21:57;1.98;;;1.40;;
69523;SDS011;56723;42.694;23.286;2023-04-24T14:24:24;3.88;;;1.60;;
69523;SDS011;56723;42.694;23.286;2023-04-24T14:26:52;3.40;;;1.40;;
69523;SDS011;56723;42.694;23.286;2023-04-24T14:29:19;1.33;;;1.05;;
69523;SDS011;56723;42.694;23.286;2023-04-24T14:31:46;4.72;;;1.73;;
69523;SDS011;56723;42.694;23.286;2023-04-24T14:34:13;3.28;;;1.85;;
69523;SDS011;56723;42.694;23.286;2023-04-24T14:36:41;8.20;;;1.63;;
69523;SDS011;56723;42.694;23.286;2023-04-24T14:39:08;4.10;;;2.05;;
69523;SDS011;56723;42.694;23.286;2023-04-24T14:41:36;5.97;;;2.33;;
69523;SDS011;56723;42.694;23.286;2023-04-24T14:44:04;4.25;;;2.33;;
69523;SDS011;56723;42.694;23.286;2023-04-24T14:46:31;4.43;;;2.47;;
69523;SDS011;56723;42.694;23.286;2023-04-24T14:48:58;6.28;;;2.58;;
69523;SDS011;56723;42.694;23.286;2023-04-24T14:51:25;2.80;;;2.20;;
69523;SDS011;56723;42.694;23.286;2023-04-24T14:53:53;4.65;;;2.28;;
69523;SDS011;56723;42.694;23.286;2023-04-24T14:56:20;3.17;;;2.22;;
69523;SDS011;56723;42.694;23.286;2023-04-24T14:58:47;3.08;;;2.03;;
69523;SDS011;56723;42.694;23.286;2023-04-24T15:01:14;3.92;;;2.45;;
69523;SDS011;56723;42.694;23.286;2023-04-24T15:06:11;4.40;;;2.57;;
69523;SDS011;56723;42.694;23.286;2023-04-24T15:08:38;2.35;;;2.05;;
69523;SDS011;56723;42.694;23.286;2023-04-24T15:11:05;2.78;;;2.17;;
69523;SDS011;56723;42.694;23.286;2023-04-24T15:13:32;4.13;;;2.53;;
69523;SDS011;56723;42.694;23.286;2023-04-24T15:16:00;2.60;;;2.13;;
69523;SDS011;56723;42.694;23.286;2023-04-24T15:18:27;4.05;;;2.50;;
69523;SDS011;56723;42.694;23.286;2023-04-24T15:20:56;4.28;;;2.55;;
69523;SDS011;56723;42.694;23.286;2023-04-24T15:23:23;6.22;;;2.95;;
69523;SDS011;56723;42.694;23.286;2023-04-24T15:25:50;6.15;;;3.28;;
69523;SDS011;56723;42.694;23.286;2023-04-24T15:28:17;5.18;;;3.47;;
69523;SDS011;56723;42.694;23.286;2023-04-24T15:30:44;4.68;;;3.45;;
69523;SDS011;56723;42.694;23.286;2023-04-24T15:33:11;3.58;;;3.15;;
69523;SDS011;56723;42.694;23.286;2023-04-24T15:35:38;7.35;;;3.20;;
69523;SDS011;56723;42.694;23.286;2023-04-24T15:38:06;7.03;;;3.13;;
